createdAt,value
2022-12-04T00:01:21.824Z,97398.91
2022-12-04T00:03:54.330Z,97396.25
2022-12-04T00:06:21.939Z,97388.25
2022-12-04T00:08:49.105Z,97387.91
2022-12-04T00:11:18.936Z,97382.91
2022-12-04T00:13:45.764Z,97368.81
2022-12-04T00:16:17.772Z,97366.16
2022-12-04T00:18:48.414Z,97373.34
2022-12-04T00:21:16.724Z,97359.25
2022-12-04T00:23:43.973Z,97362.69
2022-12-04T00:26:13.043Z,97373.34
2022-12-04T00:28:43.604Z,97372.25
2022-12-04T00:31:15.565Z,97369.59
2022-12-04T00:33:42.266Z,97360.00
2022-12-04T00:36:11.405Z,97371.81
2022-12-04T00:38:44.695Z,97369.91
2022-12-04T00:41:13.419Z,97375.25
2022-12-04T00:43:40.110Z,97382.16
2022-12-04T00:46:07.432Z,97378.69
2022-12-04T00:48:33.956Z,97381.66
2022-12-04T00:51:09.804Z,97378.69
2022-12-04T00:53:36.202Z,97385.13
2022-12-04T00:56:08.155Z,97392.81
2022-12-04T00:58:36.866Z,97398.91
2022-12-04T01:01:13.597Z,97386.69
2022-12-04T01:03:41.146Z,97392.00
2022-12-04T01:06:20.383Z,97386.69
2022-12-04T01:08:51.473Z,97392.81
2022-12-04T01:11:18.716Z,97390.16
2022-12-04T01:13:46.358Z,97388.56
2022-12-04T01:16:21.972Z,97390.16
2022-12-04T01:18:49.595Z,97394.69
2022-12-04T01:21:16.781Z,97392.34
2022-12-04T01:23:46.406Z,97385.91
2022-12-04T01:26:13.779Z,97392.34
2022-12-04T01:28:40.809Z,97396.56
2022-12-04T01:31:15.193Z,97395.81
2022-12-04T01:33:43.006Z,97390.47
2022-12-04T01:36:13.189Z,97385.91
2022-12-04T01:38:42.449Z,97395.81
2022-12-04T01:41:11.527Z,97400.00
2022-12-04T01:43:38.946Z,97393.13
2022-12-04T01:46:06.676Z,97380.56
2022-12-04T01:48:37.584Z,97372.91
2022-12-04T01:51:10.565Z,97387.00
2022-12-04T01:53:42.194Z,97372.91
2022-12-04T01:56:09.523Z,97376.34
2022-12-04T01:58:41.929Z,97364.91
2022-12-04T02:01:09.709Z,97372.91
2022-12-04T02:03:39.516Z,97374.47
2022-12-04T02:06:07.124Z,97364.91
2022-12-04T02:08:35.947Z,97361.44
2022-12-04T02:11:21.390Z,97358.47
2022-12-04T02:14:05.530Z,97351.56
2022-12-04T02:16:45.420Z,97353.44
2022-12-04T02:19:39.058Z,97347.34
2022-12-04T02:22:19.446Z,97349.22
2022-12-04T02:25:23.261Z,97345.78
2022-12-04T02:28:11.545Z,97345.00
2022-12-04T02:30:41.410Z,97329.34
2022-12-04T02:33:22.223Z,97327.44
2022-12-04T02:35:55.318Z,97335.44
2022-12-04T02:38:29.399Z,97325.56
2022-12-04T02:41:01.205Z,97319.44
2022-12-04T02:43:31.746Z,97329.34
2022-12-04T02:46:05.731Z,97324.78
2022-12-04T02:48:36.746Z,97321.34
2022-12-04T02:51:06.781Z,97317.09
2022-12-04T02:53:40.374Z,97315.22
2022-12-04T02:56:11.877Z,97326.19
2022-12-04T02:58:46.665Z,97326.19
2022-12-04T03:01:20.086Z,97328.41
2022-12-04T03:03:56.316Z,97341.44
2022-12-04T03:06:24.704Z,97350.19
2022-12-04T03:08:59.736Z,97350.19
2022-12-04T03:11:31.319Z,97352.84
2022-12-04T03:14:04.689Z,97342.19
2022-12-04T03:16:40.735Z,97344.09
2022-12-04T03:19:31.497Z,97346.00
2022-12-04T03:22:05.060Z,97353.97
2022-12-04T03:24:39.207Z,97352.84
2022-12-04T03:27:14.025Z,97348.66
2022-12-04T03:29:48.273Z,97356.66
2022-12-04T03:32:40.387Z,97360.41
2022-12-04T03:35:43.377Z,97349.75
2022-12-04T03:38:21.299Z,97363.06
2022-12-04T03:40:56.684Z,97359.66
2022-12-04T03:43:33.187Z,97347.41
2022-12-04T03:46:08.457Z,97343.66
2022-12-04T03:48:42.669Z,97334.84
2022-12-04T03:51:22.325Z,97331.41
2022-12-04T03:54:02.705Z,97337.84
2022-12-04T03:56:35.347Z,97329.84
2022-12-04T03:59:18.711Z,97330.66
2022-12-04T04:01:51.492Z,97329.06
2022-12-04T04:04:32.322Z,97327.97
2022-12-04T04:07:07.424Z,97333.59
2022-12-04T04:09:37.125Z,97333.59
2022-12-04T04:12:18.580Z,97332.84
2022-12-04T04:15:14.532Z,97332.06
2022-12-04T04:18:03.471Z,97327.50
2022-12-04T04:21:03.492Z,97333.59
2022-12-04T04:23:54.357Z,97339.75
2022-12-04T04:26:22.809Z,97330.66
2022-12-04T04:28:49.399Z,97330.66
2022-12-04T04:31:45.301Z,97329.06
2022-12-04T04:34:18.589Z,97316.06
2022-12-04T04:36:54.789Z,97319.50
2022-12-04T04:39:36.116Z,97326.75
2022-12-04T04:42:10.606Z,97321.75
2022-12-04T04:44:58.885Z,97329.41
2022-12-04T04:47:43.026Z,97329.75
2022-12-04T04:50:11.971Z,97323.59
2022-12-04T04:52:42.170Z,97325.50
2022-12-04T04:55:11.150Z,97316.75
2022-12-04T04:57:37.694Z,97325.50
2022-12-04T05:00:23.058Z,97336.59
2022-12-04T05:02:50.479Z,97320.16
2022-12-04T05:05:17.821Z,97329.25
2022-12-04T05:07:46.542Z,97321.28
2022-12-04T05:10:14.048Z,97322.38
2022-12-04T05:12:40.525Z,97313.94
2022-12-04T05:15:07.596Z,97326.59
2022-12-04T05:17:35.737Z,97322.38
2022-12-04T05:20:03.943Z,97331.94
2022-12-04T05:22:37.753Z,97333.81
2022-12-04T05:25:04.941Z,97336.50
2022-12-04T05:27:34.044Z,97326.94
2022-12-04T05:30:02.369Z,97339.16
2022-12-04T05:32:29.661Z,97341.03
2022-12-04T05:34:58.129Z,97336.50
2022-12-04T05:37:31.861Z,97342.91
2022-12-04T05:39:58.771Z,97348.25
2022-12-04T05:42:27.775Z,97341.03
2022-12-04T05:44:54.329Z,97344.81
2022-12-04T05:47:22.509Z,97350.91
2022-12-04T05:49:49.094Z,97355.47
2022-12-04T05:52:23.440Z,97355.47
2022-12-04T05:54:49.900Z,97357.81
2022-12-04T05:57:16.396Z,97358.91
2022-12-04T05:59:55.552Z,97366.91
2022-12-04T06:02:25.022Z,97373.00
2022-12-04T06:04:51.618Z,97363.91
2022-12-04T06:07:20.397Z,97370.34
2022-12-04T06:09:46.905Z,97363.91
2022-12-04T06:12:13.396Z,97368.47
2022-12-04T06:14:44.453Z,97369.25
2022-12-04T06:17:10.933Z,97378.03
2022-12-04T06:19:37.500Z,97375.69
2022-12-04T06:22:04.085Z,97372.25
2022-12-04T06:24:30.854Z,97389.81
2022-12-04T06:29:47.656Z,97400.47
2022-12-04T06:32:20.944Z,97399.66
2022-12-04T06:34:53.428Z,97393.25
2022-12-04T06:37:22.545Z,97398.56
2022-12-04T06:39:49.434Z,97398.91
2022-12-04T06:42:16.694Z,97398.13
2022-12-04T06:44:43.212Z,97396.56
2022-12-04T06:47:13.374Z,97398.13
2022-12-04T06:49:40.200Z,97397.31
2022-12-04T06:52:06.647Z,97400.78
2022-12-04T06:54:33.126Z,97393.56
2022-12-04T06:57:06.272Z,97400.47
2022-12-04T06:59:34.035Z,97392.78
2022-12-04T07:02:00.554Z,97403.47
2022-12-04T07:04:27.257Z,97406.91
2022-12-04T07:06:55.464Z,97403.47
2022-12-04T07:09:22.012Z,97408.78
2022-12-04T07:11:48.690Z,97406.56
2022-12-04T07:14:15.197Z,97411.91
2022-12-04T07:16:42.699Z,97411.13
2022-12-04T07:19:20.230Z,97411.91
2022-12-04T07:21:46.729Z,97418.03
2022-12-04T07:24:16.307Z,97414.25
2022-12-04T07:26:44.620Z,97410.81
2022-12-04T07:29:11.771Z,97410.81
2022-12-04T07:31:38.528Z,97415.03
2022-12-04T07:34:07.321Z,97409.38
2022-12-04T07:36:33.871Z,97409.72
2022-12-04T07:39:00.479Z,97411.72
2022-12-04T07:41:27.044Z,97409.72
2022-12-04T07:43:54.329Z,97417.38
2022-12-04T07:46:23.584Z,97411.25
2022-12-04T07:48:52.543Z,97412.81
2022-12-04T07:51:22.138Z,97407.50
2022-12-04T07:53:49.985Z,97409.81
2022-12-04T07:56:17.345Z,97408.25
2022-12-04T07:58:44.210Z,97408.25
2022-12-04T08:01:13.354Z,97411.72
2022-12-04T08:03:47.103Z,97407.97
2022-12-04T08:06:17.963Z,97411.41
2022-12-04T08:08:44.924Z,97398.50
2022-12-04T08:11:17.323Z,97399.31
2022-12-04T08:13:44.366Z,97413.41
2022-12-04T08:16:12.453Z,97411.50
2022-12-04T08:18:40.315Z,97406.97
2022-12-04T08:21:11.972Z,97406.31
2022-12-04T08:23:40.404Z,97404.09
2022-12-04T08:26:07.995Z,97404.91
2022-12-04T08:28:35.480Z,97401.00
2022-12-04T08:31:08.185Z,97407.91
2022-12-04T08:33:35.919Z,97412.56
2022-12-04T08:36:05.751Z,97415.56
2022-12-04T08:38:34.567Z,97418.22
2022-12-04T08:41:02.382Z,97421.34
2022-12-04T08:43:29.540Z,97409.91
2022-12-04T08:46:01.465Z,97412.25
2022-12-04T08:48:30.834Z,97404.25
2022-12-04T08:50:57.494Z,97411.59
2022-12-04T08:53:24.805Z,97410.81
2022-12-04T08:55:52.173Z,97413.16
2022-12-04T08:58:19.972Z,97401.06
2022-12-04T09:00:48.305Z,97408.09
2022-12-04T09:03:23.556Z,97400.53
2022-12-04T09:05:52.834Z,97410.41
2022-12-04T09:08:21.381Z,97411.84
2022-12-04T09:10:47.926Z,97418.75
2022-12-04T09:13:16.155Z,97419.19
2022-12-04T09:15:42.703Z,97428.00
2022-12-04T09:18:09.354Z,97421.84
2022-12-04T09:20:38.111Z,97429.56
2022-12-04T09:23:05.791Z,97427.66
2022-12-04T09:25:35.976Z,97437.22
2022-12-04T09:28:02.678Z,97437.56
2022-12-04T09:30:29.153Z,97430.78
2022-12-04T09:32:56.239Z,97435.91
2022-12-04T09:35:24.532Z,97437.81
2022-12-04T09:37:51.081Z,97437.81
2022-12-04T09:40:54.694Z,97444.59
2022-12-04T09:43:51.047Z,97439.44
2022-12-04T09:46:31.057Z,97439.75
2022-12-04T09:49:02.220Z,97440.09
2022-12-04T09:51:31.213Z,97446.50
2022-12-04T09:54:04.006Z,97441.50
2022-12-04T09:56:32.239Z,97443.84
2022-12-04T09:59:10.749Z,97441.19
2022-12-04T10:01:48.526Z,97435.84
2022-12-04T10:04:17.276Z,97438.84
2022-12-04T10:06:46.752Z,97428.06
2022-12-04T10:09:22.452Z,97439.06
2022-12-04T10:11:53.168Z,97437.94
2022-12-04T10:14:55.772Z,97442.66
2022-12-04T10:17:37.277Z,97445.22
2022-12-04T10:20:19.162Z,97442.88
2022-12-04T10:23:16.507Z,97436.41
2022-12-04T10:25:49.586Z,97436.31
2022-12-04T10:28:24.878Z,97441.97
2022-12-04T10:30:57.346Z,97435.84
2022-12-04T10:33:38.094Z,97435.06
2022-12-04T10:39:38.585Z,97428.69
2022-12-04T10:42:28.460Z,97422.88
2022-12-04T10:44:59.393Z,97422.88
2022-12-04T10:47:26.390Z,97417.22
2022-12-04T10:50:02.485Z,97407.22
2022-12-04T10:52:29.259Z,97402.66
2022-12-04T10:54:59.682Z,97404.13
2022-12-04T10:57:42.865Z,97405.00
2022-12-04T11:00:34.940Z,97405.78
2022-12-04T11:03:12.471Z,97399.50
2022-12-04T11:05:45.917Z,97402.63
2022-12-04T11:08:26.454Z,97401.97
2022-12-04T11:11:06.297Z,97396.31
2022-12-04T11:13:34.886Z,97397.22
2022-12-04T11:16:01.711Z,97394.69
2022-12-04T11:18:34.034Z,97396.69
2022-12-04T11:21:07.155Z,97386.16
2022-12-04T11:23:43.106Z,97377.84
2022-12-04T11:26:10.848Z,97378.31
2022-12-04T11:28:42.040Z,97371.66
2022-12-04T11:31:15.292Z,97372.34
2022-12-04T11:34:00.137Z,97362.72
2022-12-04T11:36:33.311Z,97366.41
2022-12-04T11:39:18.923Z,97364.63
2022-12-04T11:41:47.397Z,97370.22
2022-12-04T11:44:26.404Z,97360.56
2022-12-04T11:46:55.982Z,97361.91
2022-12-04T11:49:24.314Z,97360.03
2022-12-04T11:51:59.885Z,97355.81
2022-12-04T11:54:29.153Z,97359.59
2022-12-04T11:57:23.289Z,97348.81
2022-12-04T12:00:18.977Z,97352.38
2022-12-04T12:03:20.536Z,97349.78
2022-12-04T12:05:56.130Z,97338.19
2022-12-04T12:08:45.146Z,97337.09
2022-12-04T12:11:36.208Z,97339.44
2022-12-04T12:14:38.338Z,97349.66
2022-12-04T12:17:25.737Z,97350.44
2022-12-04T12:20:19.543Z,97347.41
2022-12-04T12:23:20.024Z,97347.72
2022-12-04T12:26:04.249Z,97336.19
2022-12-04T12:28:50.882Z,97334.72
2022-12-04T12:31:30.766Z,97335.38
2022-12-04T12:34:16.407Z,97331.59
2022-12-04T12:36:49.777Z,97333.28
2022-12-04T12:39:22.996Z,97331.41
2022-12-04T12:41:55.930Z,97328.94
2022-12-04T12:44:53.591Z,97333.03
2022-12-04T12:47:30.246Z,97335.28
2022-12-04T12:50:14.370Z,97338.50
2022-12-04T12:52:49.625Z,97335.28
2022-12-04T12:55:26.329Z,97334.47
2022-12-04T12:58:06.648Z,97343.72
2022-12-04T13:00:39.537Z,97335.50
2022-12-04T13:03:25.301Z,97327.50
2022-12-04T13:05:56.852Z,97333.53
2022-12-04T13:08:29.662Z,97331.97
2022-12-04T13:11:18.037Z,97333.19
2022-12-04T13:13:52.955Z,97323.50
2022-12-04T13:16:31.212Z,97318.94
2022-12-04T13:19:07.648Z,97317.50
2022-12-04T13:21:41.912Z,97315.97
2022-12-04T13:24:37.468Z,97315.06
2022-12-04T13:27:15.309Z,97310.19
2022-12-04T13:29:59.446Z,97312.53
2022-12-04T13:32:53.694Z,97305.75
2022-12-04T13:35:58.924Z,97309.75
2022-12-04T13:38:58.347Z,97311.31
2022-12-04T13:41:29.368Z,97302.63
2022-12-04T13:43:57.553Z,97304.97
2022-12-04T13:46:24.209Z,97306.66
2022-12-04T13:48:52.560Z,97296.41
2022-12-04T13:51:39.504Z,97294.41
2022-12-04T13:54:12.141Z,97294.63
2022-12-04T13:56:44.466Z,97291.94
2022-12-04T13:59:37.475Z,97294.41
2022-12-04T14:02:22.597Z,97301.66
2022-12-04T14:05:09.345Z,97298.84
2022-12-04T14:07:39.559Z,97304.97
2022-12-04T14:10:29.225Z,97301.53
2022-12-04T14:13:07.085Z,97304.19
2022-12-04T14:15:36.917Z,97300.44
2022-12-04T14:18:17.645Z,97305.88
2022-12-04T14:20:46.556Z,97306.53
2022-12-04T14:23:23.356Z,97314.88
2022-12-04T14:25:53.476Z,97316.84
2022-12-04T14:28:42.184Z,97322.06
2022-12-04T14:31:09.238Z,97328.84
2022-12-04T14:34:02.937Z,97329.03
2022-12-04T14:36:37.610Z,97334.59
2022-12-04T14:39:23.442Z,97330.56
2022-12-04T14:41:52.381Z,97322.13
2022-12-04T14:44:28.021Z,97328.91
2022-12-04T14:46:59.425Z,97331.13
2022-12-04T14:49:58.590Z,97331.13
2022-12-04T14:52:38.227Z,97334.22
2022-12-04T14:55:28.813Z,97330.00
2022-12-04T14:58:00.214Z,97330.47
2022-12-04T15:00:26.789Z,97331.22
2022-12-04T15:02:57.977Z,97331.91
2022-12-04T15:05:28.778Z,97333.78
2022-12-04T15:08:01.159Z,97334.56
2022-12-04T15:10:51.351Z,97335.66
2022-12-04T15:13:31.495Z,97331.75
2022-12-04T15:16:04.846Z,97327.56
2022-12-04T15:18:34.259Z,97328.66
2022-12-04T15:21:07.053Z,97335.22
2022-12-04T15:23:33.503Z,97333.66
2022-12-04T15:26:03.505Z,97329.41
2022-12-04T15:28:41.995Z,97327.22
2022-12-04T15:31:15.333Z,97334.91
2022-12-04T15:33:42.849Z,97340.41
2022-12-04T15:36:15.919Z,97334.75
2022-12-04T15:38:51.337Z,97330.56
2022-12-04T15:41:35.890Z,97333.84
2022-12-04T15:44:24.865Z,97333.06
2022-12-04T15:46:53.741Z,97331.19
2022-12-04T15:49:26.036Z,97329.84
2022-12-04T15:52:16.763Z,97324.97
2022-12-04T15:55:07.356Z,97338.09
2022-12-04T15:57:39.462Z,97338.09
2022-12-04T16:00:23.792Z,97349.84
2022-12-04T16:02:52.716Z,97347.97
2022-12-04T16:05:22.169Z,97354.56
2022-12-04T16:08:05.240Z,97357.84
2022-12-04T16:10:34.557Z,97360.53
2022-12-04T16:13:03.457Z,97372.75
2022-12-04T16:15:49.246Z,97365.41
2022-12-04T16:18:21.319Z,97358.97
2022-12-04T16:20:51.826Z,97358.66
2022-12-04T16:23:18.667Z,97358.19
2022-12-04T16:25:45.320Z,97371.06
2022-12-04T16:28:11.867Z,97364.97
2022-12-04T16:30:40.284Z,97364.97
2022-12-04T16:33:07.023Z,97367.94
2022-12-04T16:35:33.715Z,97366.50
2022-12-04T16:38:00.248Z,97357.06
2022-12-04T16:40:26.733Z,97349.41
2022-12-04T16:42:53.216Z,97351.63
2022-12-04T16:45:27.805Z,97355.50
2022-12-04T16:47:54.497Z,97355.06
2022-12-04T16:50:27.178Z,97368.41
2022-12-04T16:52:54.687Z,97377.19
2022-12-04T16:55:34.330Z,97376.09
2022-12-04T16:58:02.310Z,97384.06
2022-12-04T17:00:29.429Z,97384.06
2022-12-04T17:02:56.241Z,97383.63
2022-12-04T17:05:26.325Z,97377.84
2022-12-04T17:07:54.097Z,97382.06
2022-12-04T17:10:24.040Z,97392.75
2022-12-04T17:12:59.190Z,97393.50
2022-12-04T17:15:25.732Z,97407.63
2022-12-04T17:17:52.249Z,97409.19
2022-12-04T17:20:23.105Z,97411.53
2022-12-04T17:22:49.969Z,97407.31
2022-12-04T17:25:17.581Z,97404.97
2022-12-04T17:27:46.750Z,97411.72
2022-12-04T17:30:14.368Z,97416.59
2022-12-04T17:32:41.154Z,97416.28
2022-12-04T17:35:09.449Z,97417.41
2022-12-04T17:37:36.457Z,97422.25
2022-12-04T17:40:02.982Z,97414.72
2022-12-04T17:45:27.956Z,97422.59
2022-12-04T17:47:54.409Z,97429.00
2022-12-04T17:50:20.927Z,97429.34
2022-12-04T17:52:47.701Z,97433.13
2022-12-04T17:55:14.234Z,97433.13
2022-12-04T17:57:43.016Z,97443.81
2022-12-04T18:00:11.678Z,97448.34
2022-12-04T18:02:38.274Z,97441.91
2022-12-04T18:05:05.122Z,97437.81
2022-12-04T18:07:31.805Z,97441.72
2022-12-04T18:10:02.181Z,97450.03
2022-12-04T18:12:28.698Z,97449.41
2022-12-04T18:14:55.505Z,97460.06
2022-12-04T18:17:22.014Z,97466.16
2022-12-04T18:19:48.537Z,97470.41
2022-12-04T18:22:15.326Z,97466.31
2022-12-04T18:24:41.813Z,97466.44
2022-12-04T18:27:08.914Z,97467.84
2022-12-04T18:29:37.292Z,97467.72
2022-12-04T18:32:03.949Z,97477.47
2022-12-04T18:34:32.412Z,97472.75
2022-12-04T18:37:00.750Z,97473.84
2022-12-04T18:39:27.298Z,97480.75
2022-12-04T18:41:57.241Z,97469.59
2022-12-04T18:44:26.453Z,97472.41
2022-12-04T18:46:53.580Z,97472.09
2022-12-04T18:49:22.028Z,97466.75
2022-12-04T18:51:50.289Z,97467.84
2022-12-04T18:54:20.354Z,97470.53
2022-12-04T18:56:47.071Z,97465.19
2022-12-04T18:59:16.881Z,97464.09
2022-12-04T19:01:52.025Z,97468.31
2022-12-04T19:04:22.601Z,97467.53
2022-12-04T19:06:51.649Z,97464.09
2022-12-04T19:09:20.927Z,97473.19
2022-12-04T19:11:47.542Z,97473.19
2022-12-04T19:14:23.122Z,97469.41
2022-12-04T19:16:53.286Z,97480.09
2022-12-04T19:19:20.079Z,97484.97
2022-12-04T19:21:46.605Z,97485.44
2022-12-04T19:24:15.794Z,97481.66
2022-12-04T19:26:43.038Z,97478.53
2022-12-04T19:29:13.738Z,97488.09
2022-12-04T19:31:50.130Z,97489.19
2022-12-04T19:34:20.045Z,97488.84
2022-12-04T19:36:47.417Z,97493.88
2022-12-04T19:39:13.997Z,97498.44
2022-12-04T19:41:41.382Z,97487.00
2022-12-04T19:44:46.271Z,97480.09
2022-12-04T19:46:56.426Z,97471.66
2022-12-04T19:49:22.976Z,97476.97
2022-12-04T19:51:49.573Z,97467.09
2022-12-04T19:54:24.704Z,97468.19
2022-12-04T19:56:52.513Z,97461.28
2022-12-04T19:59:20.420Z,97452.50
2022-12-04T20:01:49.129Z,97455.94
2022-12-04T20:04:15.702Z,97458.59
2022-12-04T20:06:44.701Z,97464.75
2022-12-04T20:09:15.258Z,97454.06
2022-12-04T20:11:45.578Z,97454.84
2022-12-04T20:14:12.164Z,97462.84
2022-12-04T20:16:40.137Z,97469.75
2022-12-04T20:19:08.455Z,97479.31
2022-12-04T20:21:35.058Z,97493.75
2022-12-04T20:24:07.592Z,97502.53
2022-12-04T20:26:38.359Z,97511.78
2022-12-04T20:29:06.555Z,97510.66
2022-12-04T20:31:37.689Z,97492.78
2022-12-04T20:34:13.944Z,97508.44
2022-12-04T20:36:44.706Z,97504.69
2022-12-04T20:39:12.737Z,97509.69
2022-12-04T20:41:40.061Z,97515.03
2022-12-04T20:44:10.301Z,97514.69
2022-12-04T20:46:38.620Z,97517.38
2022-12-04T20:49:08.625Z,97530.38
2022-12-04T20:51:47.274Z,97531.94
2022-12-04T20:54:17.820Z,97534.63
2022-12-04T20:56:46.051Z,97539.19
2022-12-04T20:59:17.393Z,97551.41
2022-12-04T21:01:43.996Z,97563.97
2022-12-04T21:04:12.704Z,97566.63
2022-12-04T21:06:45.686Z,97569.63
2022-12-04T21:09:14.821Z,97570.72
2022-12-04T21:11:47.633Z,97576.38
2022-12-04T21:14:37.467Z,97586.59
2022-12-04T21:17:07.435Z,97577.03
2022-12-04T21:19:33.995Z,97573.59
2022-12-04T21:22:00.518Z,97576.25
2022-12-04T21:24:28.908Z,97580.03
2022-12-04T21:26:56.060Z,97571.22
2022-12-04T21:29:24.920Z,97577.69
2022-12-04T21:31:51.639Z,97583.78
2022-12-04T21:34:18.404Z,97584.56
2022-12-04T21:36:46.439Z,97579.53
2022-12-04T21:39:14.468Z,97589.88
2022-12-04T21:41:59.963Z,97594.44
2022-12-04T21:44:28.290Z,97586.00
2022-12-04T21:46:54.893Z,97593.19
2022-12-04T21:49:21.409Z,97601.19
2022-12-04T21:51:58.484Z,97599.00
2022-12-04T21:54:26.756Z,97600.09
2022-12-04T21:57:03.400Z,97623.03
2022-12-04T21:59:31.149Z,97618.78
2022-12-04T22:01:57.677Z,97618.78
2022-12-04T22:04:31.330Z,97616.13
2022-12-04T22:06:59.821Z,97613.44
2022-12-04T22:09:26.286Z,97615.00
2022-12-04T22:11:52.918Z,97610.78
2022-12-04T22:14:19.486Z,97619.88
2022-12-04T22:16:46.154Z,97629.44
2022-12-04T22:19:23.044Z,97640.13
2022-12-04T22:21:52.675Z,97621.44
2022-12-04T22:24:19.209Z,97618.78
2022-12-04T22:26:45.909Z,97629.44
2022-12-04T22:29:48.524Z,97651.88
2022-12-04T22:32:01.200Z,97654.69
2022-12-04T22:34:27.997Z,97660.81
2022-12-04T22:36:54.447Z,97673.81
2022-12-04T22:39:22.689Z,97663.94
2022-12-04T22:41:49.241Z,97685.28
2022-12-04T22:44:15.776Z,97700.66
2022-12-04T22:46:44.508Z,97701.44
2022-12-04T22:49:11.144Z,97702.22
2022-12-04T22:51:37.603Z,97687.00
2022-12-04T22:54:10.190Z,97674.09
2022-12-04T22:56:36.696Z,97666.59
2022-12-04T22:59:03.186Z,97673.78
2022-12-04T23:01:33.452Z,97693.25
2022-12-04T23:04:01.885Z,97703.44
2022-12-04T23:06:31.402Z,97706.59
2022-12-04T23:09:03.364Z,97693.59
2022-12-04T23:11:29.867Z,97676.00
2022-12-04T23:14:00.268Z,97680.25
2022-12-04T23:16:42.426Z,97673.66
2022-12-04T23:19:12.500Z,97695.31
2022-12-04T23:21:39.743Z,97698.31
2022-12-04T23:24:06.799Z,97702.06
2022-12-04T23:26:35.977Z,97685.28
2022-12-04T23:29:03.209Z,97682.16
2022-12-04T23:31:31.040Z,97684.38
2022-12-04T23:34:03.065Z,97703.03
2022-12-04T23:36:30.194Z,97698.78
2022-12-04T23:38:58.481Z,97698.78
2022-12-04T23:41:30.221Z,97697.22
2022-12-04T23:43:57.526Z,97706.34
2022-12-04T23:46:30.597Z,97719.69
2022-12-04T23:48:57.209Z,97721.22
2022-12-04T23:51:24.165Z,97727.81
2022-12-04T23:54:02.440Z,97719.50
2022-12-04T23:56:30.589Z,97726.41
2022-12-04T23:58:57.489Z,97718.41
